sensor_id;sensor_type;location;lat;lon;timestamp;temperature;humidity
25732;DHT22;13585;50.864;4.406;2023-02-01T00:00:25;15.50;63.60
25732;DHT22;13585;50.864;4.406;2023-02-01T00:02:51;15.50;63.50
25732;DHT22;13585;50.864;4.406;2023-02-01T00:05:16;15.50;63.60
25732;DHT22;13585;50.864;4.406;2023-02-01T00:07:42;15.50;63.60
25732;DHT22;13585;50.864;4.406;2023-02-01T00:10:08;15.50;63.60
25732;DHT22;13585;50.864;4.406;2023-02-01T00:12:34;15.50;63.60
25732;DHT22;13585;50.864;4.406;2023-02-01T00:15:00;15.50;63.70
25732;DHT22;13585;50.864;4.406;2023-02-01T00:17:25;15.50;63.60
25732;DHT22;13585;50.864;4.406;2023-02-01T00:19:51;15.50;63.60
25732;DHT22;13585;50.864;4.406;2023-02-01T00:22:17;15.50;63.70
25732;DHT22;13585;50.864;4.406;2023-02-01T00:24:43;15.50;63.70
25732;DHT22;13585;50.864;4.406;2023-02-01T00:27:09;15.50;63.70
25732;DHT22;13585;50.864;4.406;2023-02-01T00:29:35;15.50;63.70
25732;DHT22;13585;50.864;4.406;2023-02-01T00:32:00;15.50;63.70
25732;DHT22;13585;50.864;4.406;2023-02-01T00:34:26;15.50;63.70
25732;DHT22;13585;50.864;4.406;2023-02-01T00:36:54;15.50;63.70
25732;DHT22;13585;50.864;4.406;2023-02-01T00:39:22;15.50;63.70
25732;DHT22;13585;50.864;4.406;2023-02-01T00:41:47;15.50;63.80
25732;DHT22;13585;50.864;4.406;2023-02-01T00:44:13;15.50;63.80
25732;DHT22;13585;50.864;4.406;2023-02-01T00:46:39;15.50;63.80
25732;DHT22;13585;50.864;4.406;2023-02-01T00:49:04;15.50;63.80
25732;DHT22;13585;50.864;4.406;2023-02-01T00:51:32;15.50;63.80
25732;DHT22;13585;50.864;4.406;2023-02-01T00:53:58;15.50;63.90
25732;DHT22;13585;50.864;4.406;2023-02-01T00:56:23;15.50;63.90
25732;DHT22;13585;50.864;4.406;2023-02-01T00:58:49;15.50;63.90
25732;DHT22;13585;50.864;4.406;2023-02-01T01:01:17;15.50;63.90
25732;DHT22;13585;50.864;4.406;2023-02-01T01:03:46;15.60;64.00
25732;DHT22;13585;50.864;4.406;2023-02-01T01:06:14;15.50;64.00
25732;DHT22;13585;50.864;4.406;2023-02-01T01:08:41;15.50;64.00
25732;DHT22;13585;50.864;4.406;2023-02-01T01:11:16;15.60;64.10
25732;DHT22;13585;50.864;4.406;2023-02-01T01:13:42;15.50;64.10
25732;DHT22;13585;50.864;4.406;2023-02-01T01:16:09;15.50;64.00
25732;DHT22;13585;50.864;4.406;2023-02-01T01:18:36;15.50;64.00
25732;DHT22;13585;50.864;4.406;2023-02-01T01:21:04;15.50;64.00
25732;DHT22;13585;50.864;4.406;2023-02-01T01:23:29;15.50;64.10
25732;DHT22;13585;50.864;4.406;2023-02-01T01:25:55;15.50;64.10
25732;DHT22;13585;50.864;4.406;2023-02-01T01:28:21;15.50;64.20
25732;DHT22;13585;50.864;4.406;2023-02-01T01:30:46;15.50;64.10
25732;DHT22;13585;50.864;4.406;2023-02-01T01:33:12;15.50;64.90
25732;DHT22;13585;50.864;4.406;2023-02-01T01:35:38;15.50;64.10
25732;DHT22;13585;50.864;4.406;2023-02-01T01:38:03;15.50;64.10
25732;DHT22;13585;50.864;4.406;2023-02-01T01:40:30;15.50;64.20
25732;DHT22;13585;50.864;4.406;2023-02-01T01:42:57;15.50;64.10
25732;DHT22;13585;50.864;4.406;2023-02-01T01:45:29;15.50;64.20
25732;DHT22;13585;50.864;4.406;2023-02-01T01:48:02;15.50;64.20
25732;DHT22;13585;50.864;4.406;2023-02-01T01:50:33;15.50;64.20
25732;DHT22;13585;50.864;4.406;2023-02-01T01:53:02;15.50;64.20
25732;DHT22;13585;50.864;4.406;2023-02-01T01:55:32;15.60;64.20
25732;DHT22;13585;50.864;4.406;2023-02-01T01:58:05;15.50;64.20
25732;DHT22;13585;50.864;4.406;2023-02-01T02:00:33;15.50;64.20
25732;DHT22;13585;50.864;4.406;2023-02-01T02:03:07;15.50;64.10
25732;DHT22;13585;50.864;4.406;2023-02-01T02:05:37;15.50;64.20
25732;DHT22;13585;50.864;4.406;2023-02-01T02:08:02;15.50;64.10
25732;DHT22;13585;50.864;4.406;2023-02-01T02:10:28;15.50;64.20
25732;DHT22;13585;50.864;4.406;2023-02-01T02:13:20;15.50;64.20
25732;DHT22;13585;50.864;4.406;2023-02-01T02:18:34;15.50;64.10
25732;DHT22;13585;50.864;4.406;2023-02-01T02:40:41;15.40;64.10
25732;DHT22;13585;50.864;4.406;2023-02-01T02:43:23;15.40;64.80
25732;DHT22;13585;50.864;4.406;2023-02-01T02:46:22;15.40;64.00
25732;DHT22;13585;50.864;4.406;2023-02-01T02:49:21;15.40;64.00
25732;DHT22;13585;50.864;4.406;2023-02-01T02:52:13;15.50;64.00
25732;DHT22;13585;50.864;4.406;2023-02-01T02:55:00;15.40;64.00
25732;DHT22;13585;50.864;4.406;2023-02-01T02:57:32;15.50;64.00
25732;DHT22;13585;50.864;4.406;2023-02-01T03:00:20;15.40;63.90
25732;DHT22;13585;50.864;4.406;2023-02-01T03:03:05;15.40;64.10
25732;DHT22;13585;50.864;4.406;2023-02-01T03:05:50;15.50;64.00
25732;DHT22;13585;50.864;4.406;2023-02-01T03:08:21;15.50;64.00
25732;DHT22;13585;50.864;4.406;2023-02-01T03:15:55;15.40;64.00
25732;DHT22;13585;50.864;4.406;2023-02-01T03:18:33;15.40;63.90
25732;DHT22;13585;50.864;4.406;2023-02-01T03:21:06;15.40;63.90
25732;DHT22;13585;50.864;4.406;2023-02-01T03:23:35;15.40;63.90
25732;DHT22;13585;50.864;4.406;2023-02-01T03:26:02;15.40;63.80
25732;DHT22;13585;50.864;4.406;2023-02-01T03:28:31;15.40;63.80
25732;DHT22;13585;50.864;4.406;2023-02-01T03:30:58;15.40;63.80
25732;DHT22;13585;50.864;4.406;2023-02-01T03:33:26;15.40;63.80
25732;DHT22;13585;50.864;4.406;2023-02-01T03:41:35;15.40;63.80
25732;DHT22;13585;50.864;4.406;2023-02-01T03:46:53;15.40;63.70
25732;DHT22;13585;50.864;4.406;2023-02-01T03:49:27;15.40;63.70
25732;DHT22;13585;50.864;4.406;2023-02-01T03:51:55;15.40;63.60
25732;DHT22;13585;50.864;4.406;2023-02-01T03:54:22;15.40;63.70
25732;DHT22;13585;50.864;4.406;2023-02-01T03:56:48;15.40;63.60
25732;DHT22;13585;50.864;4.406;2023-02-01T03:59:15;15.40;63.70
25732;DHT22;13585;50.864;4.406;2023-02-01T04:01:40;15.40;63.70
25732;DHT22;13585;50.864;4.406;2023-02-01T04:04:06;15.40;63.60
25732;DHT22;13585;50.864;4.406;2023-02-01T04:06:32;15.40;63.60
25732;DHT22;13585;50.864;4.406;2023-02-01T04:08:58;15.40;63.60
25732;DHT22;13585;50.864;4.406;2023-02-01T04:11:23;15.40;63.60
25732;DHT22;13585;50.864;4.406;2023-02-01T04:13:49;15.40;63.50
25732;DHT22;13585;50.864;4.406;2023-02-01T04:16:15;15.40;63.50
25732;DHT22;13585;50.864;4.406;2023-02-01T04:18:40;15.40;63.50
25732;DHT22;13585;50.864;4.406;2023-02-01T04:21:06;15.40;63.50
25732;DHT22;13585;50.864;4.406;2023-02-01T04:23:31;15.40;63.50
25732;DHT22;13585;50.864;4.406;2023-02-01T04:26:02;15.40;63.50
25732;DHT22;13585;50.864;4.406;2023-02-01T04:28:28;15.40;63.50
25732;DHT22;13585;50.864;4.406;2023-02-01T04:30:54;15.40;63.40
25732;DHT22;13585;50.864;4.406;2023-02-01T04:33:20;15.40;63.40
25732;DHT22;13585;50.864;4.406;2023-02-01T04:35:45;15.40;63.40
25732;DHT22;13585;50.864;4.406;2023-02-01T04:38:11;15.40;63.40
25732;DHT22;13585;50.864;4.406;2023-02-01T04:40:37;15.40;63.40
25732;DHT22;13585;50.864;4.406;2023-02-01T04:43:03;15.40;63.40
25732;DHT22;13585;50.864;4.406;2023-02-01T04:45:29;15.40;63.40
25732;DHT22;13585;50.864;4.406;2023-02-01T04:47:55;15.40;63.40
25732;DHT22;13585;50.864;4.406;2023-02-01T04:50:21;15.40;63.40
25732;DHT22;13585;50.864;4.406;2023-02-01T04:52:46;15.40;63.40
25732;DHT22;13585;50.864;4.406;2023-02-01T04:55:12;15.40;63.40
25732;DHT22;13585;50.864;4.406;2023-02-01T04:57:39;15.40;63.40
25732;DHT22;13585;50.864;4.406;2023-02-01T05:00:07;15.40;63.40
25732;DHT22;13585;50.864;4.406;2023-02-01T05:02:34;15.40;63.40
25732;DHT22;13585;50.864;4.406;2023-02-01T05:05:00;15.40;63.40
25732;DHT22;13585;50.864;4.406;2023-02-01T05:07:26;15.40;63.40
25732;DHT22;13585;50.864;4.406;2023-02-01T05:09:51;15.40;63.40
25732;DHT22;13585;50.864;4.406;2023-02-01T05:12:17;15.40;63.40
25732;DHT22;13585;50.864;4.406;2023-02-01T05:15:01;15.40;63.40
25732;DHT22;13585;50.864;4.406;2023-02-01T05:17:27;15.50;63.50
25732;DHT22;13585;50.864;4.406;2023-02-01T05:19:53;15.40;63.50
25732;DHT22;13585;50.864;4.406;2023-02-01T05:22:18;15.40;63.50
25732;DHT22;13585;50.864;4.406;2023-02-01T05:24:44;15.40;63.60
25732;DHT22;13585;50.864;4.406;2023-02-01T05:27:10;15.50;63.60
25732;DHT22;13585;50.864;4.406;2023-02-01T05:29:35;15.50;63.70
25732;DHT22;13585;50.864;4.406;2023-02-01T05:32:01;15.50;63.70
25732;DHT22;13585;50.864;4.406;2023-02-01T05:34:27;15.50;63.70
25732;DHT22;13585;50.864;4.406;2023-02-01T05:36:52;15.50;63.80
25732;DHT22;13585;50.864;4.406;2023-02-01T05:39:18;15.50;63.80
25732;DHT22;13585;50.864;4.406;2023-02-01T05:41:44;15.50;63.80
25732;DHT22;13585;50.864;4.406;2023-02-01T05:44:10;15.50;63.90
25732;DHT22;13585;50.864;4.406;2023-02-01T05:46:36;15.50;63.90
25732;DHT22;13585;50.864;4.406;2023-02-01T05:49:02;15.50;64.00
25732;DHT22;13585;50.864;4.406;2023-02-01T05:51:28;15.50;64.00
25732;DHT22;13585;50.864;4.406;2023-02-01T05:53:53;15.50;64.00
25732;DHT22;13585;50.864;4.406;2023-02-01T05:56:19;15.50;64.10
25732;DHT22;13585;50.864;4.406;2023-02-01T05:58:44;15.60;64.20
25732;DHT22;13585;50.864;4.406;2023-02-01T06:01:10;15.50;64.20
25732;DHT22;13585;50.864;4.406;2023-02-01T06:03:36;15.60;64.20
25732;DHT22;13585;50.864;4.406;2023-02-01T06:06:02;15.60;64.30
25732;DHT22;13585;50.864;4.406;2023-02-01T06:08:28;15.60;64.30
25732;DHT22;13585;50.864;4.406;2023-02-01T06:11:01;15.60;64.30
25732;DHT22;13585;50.864;4.406;2023-02-01T06:13:27;15.60;64.40
25732;DHT22;13585;50.864;4.406;2023-02-01T06:15:53;15.60;64.30
25732;DHT22;13585;50.864;4.406;2023-02-01T06:18:19;15.60;64.40
25732;DHT22;13585;50.864;4.406;2023-02-01T06:20:45;15.60;64.40
25732;DHT22;13585;50.864;4.406;2023-02-01T06:23:10;15.60;64.50
25732;DHT22;13585;50.864;4.406;2023-02-01T06:25:36;15.60;64.50
25732;DHT22;13585;50.864;4.406;2023-02-01T06:28:03;15.60;64.50
25732;DHT22;13585;50.864;4.406;2023-02-01T06:30:31;15.60;64.50
25732;DHT22;13585;50.864;4.406;2023-02-01T06:32:56;15.60;64.50
25732;DHT22;13585;50.864;4.406;2023-02-01T06:35:22;15.60;64.50
25732;DHT22;13585;50.864;4.406;2023-02-01T06:37:48;15.60;64.60
25732;DHT22;13585;50.864;4.406;2023-02-01T06:40:13;15.70;64.70
25732;DHT22;13585;50.864;4.406;2023-02-01T06:42:39;15.70;64.70
25732;DHT22;13585;50.864;4.406;2023-02-01T06:45:05;15.70;64.70
25732;DHT22;13585;50.864;4.406;2023-02-01T06:47:32;15.70;64.70
25732;DHT22;13585;50.864;4.406;2023-02-01T06:49:58;15.70;64.70
25732;DHT22;13585;50.864;4.406;2023-02-01T06:52:23;15.70;64.70
25732;DHT22;13585;50.864;4.406;2023-02-01T06:54:49;15.70;64.70
25732;DHT22;13585;50.864;4.406;2023-02-01T06:57:14;15.70;64.80
25732;DHT22;13585;50.864;4.406;2023-02-01T06:59:40;15.70;64.80
25732;DHT22;13585;50.864;4.406;2023-02-01T07:02:08;15.70;64.90
25732;DHT22;13585;50.864;4.406;2023-02-01T07:04:33;15.70;64.90
25732;DHT22;13585;50.864;4.406;2023-02-01T07:06:59;15.80;65.00
25732;DHT22;13585;50.864;4.406;2023-02-01T07:09:25;15.80;65.00
25732;DHT22;13585;50.864;4.406;2023-02-01T07:11:50;15.80;65.00
25732;DHT22;13585;50.864;4.406;2023-02-01T07:14:16;15.80;65.00
25732;DHT22;13585;50.864;4.406;2023-02-01T07:16:41;15.80;65.00
25732;DHT22;13585;50.864;4.406;2023-02-01T07:19:07;15.80;65.00
25732;DHT22;13585;50.864;4.406;2023-02-01T07:21:33;15.80;65.00
25732;DHT22;13585;50.864;4.406;2023-02-01T07:23:58;15.80;65.00
25732;DHT22;13585;50.864;4.406;2023-02-01T07:26:24;15.80;65.00
25732;DHT22;13585;50.864;4.406;2023-02-01T07:28:50;15.80;65.00
25732;DHT22;13585;50.864;4.406;2023-02-01T07:31:17;15.80;65.00
25732;DHT22;13585;50.864;4.406;2023-02-01T07:33:48;15.80;65.00
25732;DHT22;13585;50.864;4.406;2023-02-01T07:36:17;15.80;65.10
25732;DHT22;13585;50.864;4.406;2023-02-01T07:38:43;15.80;65.10
25732;DHT22;13585;50.864;4.406;2023-02-01T07:41:09;15.80;65.20
25732;DHT22;13585;50.864;4.406;2023-02-01T07:43:35;15.80;65.20
25732;DHT22;13585;50.864;4.406;2023-02-01T07:46:02;15.80;65.20
25732;DHT22;13585;50.864;4.406;2023-02-01T07:48:29;15.80;65.20
25732;DHT22;13585;50.864;4.406;2023-02-01T07:51:03;15.80;65.20
25732;DHT22;13585;50.864;4.406;2023-02-01T07:53:31;15.80;65.20
25732;DHT22;13585;50.864;4.406;2023-02-01T07:55:57;15.80;65.10
25732;DHT22;13585;50.864;4.406;2023-02-01T07:58:24;15.80;65.10
25732;DHT22;13585;50.864;4.406;2023-02-01T08:00:50;15.80;65.10
25732;DHT22;13585;50.864;4.406;2023-02-01T08:03:34;15.80;65.10
25732;DHT22;13585;50.864;4.406;2023-02-01T08:06:00;15.80;65.10
25732;DHT22;13585;50.864;4.406;2023-02-01T08:08:25;15.80;65.00
25732;DHT22;13585;50.864;4.406;2023-02-01T08:10:51;15.80;65.00
25732;DHT22;13585;50.864;4.406;2023-02-01T08:13:17;15.80;65.80
25732;DHT22;13585;50.864;4.406;2023-02-01T08:15:42;15.70;65.00
25732;DHT22;13585;50.864;4.406;2023-02-01T08:18:08;15.80;65.00
25732;DHT22;13585;50.864;4.406;2023-02-01T08:20:35;15.80;65.00
25732;DHT22;13585;50.864;4.406;2023-02-01T08:23:01;15.80;65.00
25732;DHT22;13585;50.864;4.406;2023-02-01T08:25:27;15.80;65.00
25732;DHT22;13585;50.864;4.406;2023-02-01T08:27:53;15.80;65.00
25732;DHT22;13585;50.864;4.406;2023-02-01T08:30:20;15.80;64.90
25732;DHT22;13585;50.864;4.406;2023-02-01T08:32:45;15.80;64.80
25732;DHT22;13585;50.864;4.406;2023-02-01T08:35:11;15.80;64.90
25732;DHT22;13585;50.864;4.406;2023-02-01T08:37:37;15.80;64.90
25732;DHT22;13585;50.864;4.406;2023-02-01T08:40:03;15.80;64.80
25732;DHT22;13585;50.864;4.406;2023-02-01T08:42:32;15.80;64.80
25732;DHT22;13585;50.864;4.406;2023-02-01T08:45:24;15.80;64.80
25732;DHT22;13585;50.864;4.406;2023-02-01T08:47:53;15.80;64.80
25732;DHT22;13585;50.864;4.406;2023-02-01T08:50:20;15.80;64.70
25732;DHT22;13585;50.864;4.406;2023-02-01T08:52:46;15.80;64.70
25732;DHT22;13585;50.864;4.406;2023-02-01T08:55:13;15.70;64.60
25732;DHT22;13585;50.864;4.406;2023-02-01T08:57:39;15.80;64.60
25732;DHT22;13585;50.864;4.406;2023-02-01T09:00:07;15.70;64.50
25732;DHT22;13585;50.864;4.406;2023-02-01T09:02:33;15.80;64.60
25732;DHT22;13585;50.864;4.406;2023-02-01T09:04:59;15.80;64.50
25732;DHT22;13585;50.864;4.406;2023-02-01T09:07:25;15.80;64.50
25732;DHT22;13585;50.864;4.406;2023-02-01T09:09:50;15.80;64.50
25732;DHT22;13585;50.864;4.406;2023-02-01T09:12:16;15.70;64.40
25732;DHT22;13585;50.864;4.406;2023-02-01T09:14:41;15.70;64.40
25732;DHT22;13585;50.864;4.406;2023-02-01T09:17:07;15.70;64.40
25732;DHT22;13585;50.864;4.406;2023-02-01T09:19:33;15.70;64.40
25732;DHT22;13585;50.864;4.406;2023-02-01T09:21:58;15.70;64.40
25732;DHT22;13585;50.864;4.406;2023-02-01T09:24:24;15.70;64.30
25732;DHT22;13585;50.864;4.406;2023-02-01T09:26:50;15.70;64.20
25732;DHT22;13585;50.864;4.406;2023-02-01T09:29:16;15.80;64.30
25732;DHT22;13585;50.864;4.406;2023-02-01T09:31:42;15.70;64.30
25732;DHT22;13585;50.864;4.406;2023-02-01T09:34:08;15.80;64.30
25732;DHT22;13585;50.864;4.406;2023-02-01T09:36:34;15.70;64.30
25732;DHT22;13585;50.864;4.406;2023-02-01T09:39:00;15.70;64.30
25732;DHT22;13585;50.864;4.406;2023-02-01T09:42:03;15.70;64.30
25732;DHT22;13585;50.864;4.406;2023-02-01T09:44:56;15.70;64.40
25732;DHT22;13585;50.864;4.406;2023-02-01T09:47:25;15.70;64.20
25732;DHT22;13585;50.864;4.406;2023-02-01T09:52:59;15.70;64.30
25732;DHT22;13585;50.864;4.406;2023-02-01T09:55:36;15.70;64.20
25732;DHT22;13585;50.864;4.406;2023-02-01T10:00:52;15.70;64.20
25732;DHT22;13585;50.864;4.406;2023-02-01T10:03:18;15.70;64.20
25732;DHT22;13585;50.864;4.406;2023-02-01T10:11:39;15.70;64.10
25732;DHT22;13585;50.864;4.406;2023-02-01T10:17:44;15.70;64.20
25732;DHT22;13585;50.864;4.406;2023-02-01T10:23:03;15.70;64.20
25732;DHT22;13585;50.864;4.406;2023-02-01T10:25:36;15.70;64.00
25732;DHT22;13585;50.864;4.406;2023-02-01T10:28:03;15.70;64.00
25732;DHT22;13585;50.864;4.406;2023-02-01T10:30:39;15.70;64.10
25732;DHT22;13585;50.864;4.406;2023-02-01T10:33:17;15.70;64.10
25732;DHT22;13585;50.864;4.406;2023-02-01T10:35:45;15.70;64.10
25732;DHT22;13585;50.864;4.406;2023-02-01T10:38:25;15.70;64.00
25732;DHT22;13585;50.864;4.406;2023-02-01T10:40:56;15.70;64.10
25732;DHT22;13585;50.864;4.406;2023-02-01T10:43:23;15.70;64.00
25732;DHT22;13585;50.864;4.406;2023-02-01T10:45:49;15.70;64.00
25732;DHT22;13585;50.864;4.406;2023-02-01T10:48:15;15.70;64.00
25732;DHT22;13585;50.864;4.406;2023-02-01T10:51:03;15.70;64.00
25732;DHT22;13585;50.864;4.406;2023-02-01T10:53:32;15.70;64.00
25732;DHT22;13585;50.864;4.406;2023-02-01T10:56:06;15.70;64.00
25732;DHT22;13585;50.864;4.406;2023-02-01T10:58:33;15.70;64.00
25732;DHT22;13585;50.864;4.406;2023-02-01T11:01:02;15.70;63.90
25732;DHT22;13585;50.864;4.406;2023-02-01T11:03:34;15.70;63.90
25732;DHT22;13585;50.864;4.406;2023-02-01T11:08:46;15.70;63.90
25732;DHT22;13585;50.864;4.406;2023-02-01T11:11:13;15.70;63.90
25732;DHT22;13585;50.864;4.406;2023-02-01T11:13:40;15.70;63.80
25732;DHT22;13585;50.864;4.406;2023-02-01T11:16:06;15.70;63.80
25732;DHT22;13585;50.864;4.406;2023-02-01T11:18:38;15.70;63.80
25732;DHT22;13585;50.864;4.406;2023-02-01T11:21:06;15.70;63.80
25732;DHT22;13585;50.864;4.406;2023-02-01T11:23:32;15.70;63.80
25732;DHT22;13585;50.864;4.406;2023-02-01T11:26:01;15.70;63.70
25732;DHT22;13585;50.864;4.406;2023-02-01T11:28:33;15.70;63.70
25732;DHT22;13585;50.864;4.406;2023-02-01T11:31:03;15.70;63.70
25732;DHT22;13585;50.864;4.406;2023-02-01T11:33:32;15.70;63.70
25732;DHT22;13585;50.864;4.406;2023-02-01T11:36:06;15.70;63.70
25732;DHT22;13585;50.864;4.406;2023-02-01T11:38:33;15.70;63.70
25732;DHT22;13585;50.864;4.406;2023-02-01T11:41:13;15.80;63.70
25732;DHT22;13585;50.864;4.406;2023-02-01T11:43:51;15.70;63.70
25732;DHT22;13585;50.864;4.406;2023-02-01T11:46:19;15.70;63.70
25732;DHT22;13585;50.864;4.406;2023-02-01T11:48:51;15.80;63.60
25732;DHT22;13585;50.864;4.406;2023-02-01T11:57:27;15.70;63.70
25732;DHT22;13585;50.864;4.406;2023-02-01T12:08:30;15.70;64.40
25732;DHT22;13585;50.864;4.406;2023-02-01T12:14:14;15.80;63.60
25732;DHT22;13585;50.864;4.406;2023-02-01T12:17:03;15.80;63.60
25732;DHT22;13585;50.864;4.406;2023-02-01T12:19:37;15.70;63.60
25732;DHT22;13585;50.864;4.406;2023-02-01T12:22:33;15.80;63.60
25732;DHT22;13585;50.864;4.406;2023-02-01T12:28:35;15.70;63.70
25732;DHT22;13585;50.864;4.406;2023-02-01T12:31:20;15.80;63.70
25732;DHT22;13585;50.864;4.406;2023-02-01T12:37:07;15.80;63.70
25732;DHT22;13585;50.864;4.406;2023-02-01T12:40:05;15.80;63.70
25732;DHT22;13585;50.864;4.406;2023-02-01T12:43:03;15.80;63.80
25732;DHT22;13585;50.864;4.406;2023-02-01T12:51:11;15.80;63.70
25732;DHT22;13585;50.864;4.406;2023-02-01T12:53:52;15.80;63.70
25732;DHT22;13585;50.864;4.406;2023-02-01T12:58:50;15.80;63.70
25732;DHT22;13585;50.864;4.406;2023-02-01T13:01:30;15.90;63.80
25732;DHT22;13585;50.864;4.406;2023-02-01T13:04:23;15.80;63.80
25732;DHT22;13585;50.864;4.406;2023-02-01T13:06:50;15.90;63.70
25732;DHT22;13585;50.864;4.406;2023-02-01T13:12:06;15.80;63.70
25732;DHT22;13585;50.864;4.406;2023-02-01T13:14:53;15.80;63.80
25732;DHT22;13585;50.864;4.406;2023-02-01T13:17:23;15.90;63.90
25732;DHT22;13585;50.864;4.406;2023-02-01T13:22:39;15.90;63.90
25732;DHT22;13585;50.864;4.406;2023-02-01T13:25:35;15.90;64.00
25732;DHT22;13585;50.864;4.406;2023-02-01T13:28:10;15.90;64.00
25732;DHT22;13585;50.864;4.406;2023-02-01T13:39:48;15.90;64.20
25732;DHT22;13585;50.864;4.406;2023-02-01T13:44:52;16.00;64.30
25732;DHT22;13585;50.864;4.406;2023-02-01T13:49:50;16.00;64.40
25732;DHT22;13585;50.864;4.406;2023-02-01T13:52:41;16.00;64.50
25732;DHT22;13585;50.864;4.406;2023-02-01T13:55:23;16.00;64.70
25732;DHT22;13585;50.864;4.406;2023-02-01T13:57:52;16.00;64.60
25732;DHT22;13585;50.864;4.406;2023-02-01T14:00:37;16.00;64.60
25732;DHT22;13585;50.864;4.406;2023-02-01T14:10:59;15.90;64.90
25732;DHT22;13585;50.864;4.406;2023-02-01T14:13:39;16.00;65.10
25732;DHT22;13585;50.864;4.406;2023-02-01T14:26:44;16.00;65.50
25732;DHT22;13585;50.864;4.406;2023-02-01T14:32:01;16.00;65.50
25732;DHT22;13585;50.864;4.406;2023-02-01T14:34:50;16.00;65.60
25732;DHT22;13585;50.864;4.406;2023-02-01T14:47:49;16.00;65.70
25732;DHT22;13585;50.864;4.406;2023-02-01T14:56:00;15.90;65.60
25732;DHT22;13585;50.864;4.406;2023-02-01T15:01:02;16.00;65.70
25732;DHT22;13585;50.864;4.406;2023-02-01T15:06:29;16.00;65.70
25732;DHT22;13585;50.864;4.406;2023-02-01T15:09:01;16.00;65.60
25732;DHT22;13585;50.864;4.406;2023-02-01T15:11:28;16.00;65.60
25732;DHT22;13585;50.864;4.406;2023-02-01T15:13:54;16.00;65.70
25732;DHT22;13585;50.864;4.406;2023-02-01T15:16:24;16.00;65.70
25732;DHT22;13585;50.864;4.406;2023-02-01T15:18:50;16.00;65.70
25732;DHT22;13585;50.864;4.406;2023-02-01T15:21:31;16.00;65.70
25732;DHT22;13585;50.864;4.406;2023-02-01T15:24:11;16.00;65.60
25732;DHT22;13585;50.864;4.406;2023-02-01T15:26:37;16.00;65.60
25732;DHT22;13585;50.864;4.406;2023-02-01T15:29:03;16.00;65.60
25732;DHT22;13585;50.864;4.406;2023-02-01T15:31:49;16.00;65.60
25732;DHT22;13585;50.864;4.406;2023-02-01T15:34:16;16.00;65.70
25732;DHT22;13585;50.864;4.406;2023-02-01T15:36:43;16.00;65.50
25732;DHT22;13585;50.864;4.406;2023-02-01T15:39:23;16.00;65.50
25732;DHT22;13585;50.864;4.406;2023-02-01T15:41:56;15.90;65.60
25732;DHT22;13585;50.864;4.406;2023-02-01T15:46:54;16.00;65.40
25732;DHT22;13585;50.864;4.406;2023-02-01T15:51:54;15.90;65.40
25732;DHT22;13585;50.864;4.406;2023-02-01T15:54:47;16.00;65.50
25732;DHT22;13585;50.864;4.406;2023-02-01T15:57:22;15.90;65.70
25732;DHT22;13585;50.864;4.406;2023-02-01T15:59:56;15.90;65.50
25732;DHT22;13585;50.864;4.406;2023-02-01T16:02:32;15.90;65.40
25732;DHT22;13585;50.864;4.406;2023-02-01T16:04:59;15.90;65.40
25732;DHT22;13585;50.864;4.406;2023-02-01T16:07:28;15.90;65.40
25732;DHT22;13585;50.864;4.406;2023-02-01T16:09:56;15.90;65.40
25732;DHT22;13585;50.864;4.406;2023-02-01T16:12:34;15.90;65.40
25732;DHT22;13585;50.864;4.406;2023-02-01T16:15:01;15.90;65.50
25732;DHT22;13585;50.864;4.406;2023-02-01T16:17:27;15.90;65.40
25732;DHT22;13585;50.864;4.406;2023-02-01T16:19:53;15.90;65.40
25732;DHT22;13585;50.864;4.406;2023-02-01T16:22:19;15.90;65.40
25732;DHT22;13585;50.864;4.406;2023-02-01T16:24:45;15.90;65.40
25732;DHT22;13585;50.864;4.406;2023-02-01T16:27:10;15.90;65.30
25732;DHT22;13585;50.864;4.406;2023-02-01T16:29:36;15.90;65.30
25732;DHT22;13585;50.864;4.406;2023-02-01T16:32:02;15.90;65.30
25732;DHT22;13585;50.864;4.406;2023-02-01T16:34:28;15.90;65.20
25732;DHT22;13585;50.864;4.406;2023-02-01T16:36:54;15.90;65.20
25732;DHT22;13585;50.864;4.406;2023-02-01T16:39:23;15.90;65.20
25732;DHT22;13585;50.864;4.406;2023-02-01T16:41:49;15.90;65.20
25732;DHT22;13585;50.864;4.406;2023-02-01T16:44:15;15.90;65.20
25732;DHT22;13585;50.864;4.406;2023-02-01T16:46:44;15.90;65.20
25732;DHT22;13585;50.864;4.406;2023-02-01T16:49:22;15.90;65.20
25732;DHT22;13585;50.864;4.406;2023-02-01T16:51:52;15.90;65.20
25732;DHT22;13585;50.864;4.406;2023-02-01T16:54:20;15.90;65.10
25732;DHT22;13585;50.864;4.406;2023-02-01T16:56:46;15.90;65.10
25732;DHT22;13585;50.864;4.406;2023-02-01T16:59:12;15.90;65.10
25732;DHT22;13585;50.864;4.406;2023-02-01T17:01:38;15.90;65.10
25732;DHT22;13585;50.864;4.406;2023-02-01T17:04:05;15.90;65.10
25732;DHT22;13585;50.864;4.406;2023-02-01T17:06:31;15.90;65.00
25732;DHT22;13585;50.864;4.406;2023-02-01T17:09:02;15.90;65.00
25732;DHT22;13585;50.864;4.406;2023-02-01T17:11:28;15.90;65.00
25732;DHT22;13585;50.864;4.406;2023-02-01T17:14:04;15.90;65.00
25732;DHT22;13585;50.864;4.406;2023-02-01T17:16:35;15.90;65.00
25732;DHT22;13585;50.864;4.406;2023-02-01T17:19:11;15.90;65.00
25732;DHT22;13585;50.864;4.406;2023-02-01T17:21:47;15.90;65.00
25732;DHT22;13585;50.864;4.406;2023-02-01T17:24:16;15.90;65.00
25732;DHT22;13585;50.864;4.406;2023-02-01T17:26:42;15.90;64.90
25732;DHT22;13585;50.864;4.406;2023-02-01T17:29:08;15.90;64.90
25732;DHT22;13585;50.864;4.406;2023-02-01T17:31:41;15.90;64.90
25732;DHT22;13585;50.864;4.406;2023-02-01T17:34:09;15.90;64.90
25732;DHT22;13585;50.864;4.406;2023-02-01T17:36:35;15.90;64.90
25732;DHT22;13585;50.864;4.406;2023-02-01T17:39:01;15.90;64.90
25732;DHT22;13585;50.864;4.406;2023-02-01T17:41:27;15.90;64.90
25732;DHT22;13585;50.864;4.406;2023-02-01T17:43:53;15.90;64.90
25732;DHT22;13585;50.864;4.406;2023-02-01T17:46:19;15.90;64.90
25732;DHT22;13585;50.864;4.406;2023-02-01T17:48:45;15.90;64.90
25732;DHT22;13585;50.864;4.406;2023-02-01T17:51:15;15.90;65.60
25732;DHT22;13585;50.864;4.406;2023-02-01T17:53:41;15.90;64.80
25732;DHT22;13585;50.864;4.406;2023-02-01T17:56:12;15.90;64.80
25732;DHT22;13585;50.864;4.406;2023-02-01T17:58:38;15.90;64.80
25732;DHT22;13585;50.864;4.406;2023-02-01T18:01:03;15.90;64.80
25732;DHT22;13585;50.864;4.406;2023-02-01T18:03:30;15.90;64.80
25732;DHT22;13585;50.864;4.406;2023-02-01T18:05:58;15.90;64.90
25732;DHT22;13585;50.864;4.406;2023-02-01T18:08:28;16.00;64.90
25732;DHT22;13585;50.864;4.406;2023-02-01T18:10:56;15.80;64.80
25732;DHT22;13585;50.864;4.406;2023-02-01T18:13:29;15.90;64.90
25732;DHT22;13585;50.864;4.406;2023-02-01T18:15:55;15.90;64.90
25732;DHT22;13585;50.864;4.406;2023-02-01T18:18:23;15.90;64.90
25732;DHT22;13585;50.864;4.406;2023-02-01T18:20:49;15.90;64.90